createdAt,value
2019-05-21T00:02:04.712Z,16.99
2019-05-21T00:04:33.708Z,17.18
2019-05-21T00:07:03.012Z,17.41
2019-05-21T00:09:31.970Z,17.18
2019-05-21T00:12:00.955Z,17.38
2019-05-21T00:14:29.726Z,17.55
2019-05-21T00:16:57.867Z,17.38
2019-05-21T00:19:26.752Z,17.54
2019-05-21T00:21:55.519Z,17.25
2019-05-21T00:24:24.993Z,16.95
2019-05-21T00:26:54.826Z,16.85
2019-05-21T00:30:39.013Z,16.86
2019-05-21T00:34:23.736Z,16.87
2019-05-21T00:38:06.686Z,16.52
2019-05-21T00:41:30.627Z,16.39
2019-05-21T00:43:59.562Z,16.31
2019-05-21T00:46:28.726Z,16.31
2019-05-21T00:48:56.934Z,16.39
2019-05-21T00:51:26.924Z,16.84
2019-05-21T00:53:56.715Z,16.63
2019-05-21T00:56:25.534Z,16.55
2019-05-21T00:58:56.494Z,16.57
2019-05-21T01:01:25.975Z,16.47
2019-05-21T01:03:56.048Z,16.71
2019-05-21T01:06:25.571Z,16.48
2019-05-21T01:08:55.093Z,16.42
2019-05-21T01:11:24.499Z,16.42
2019-05-21T01:13:54.596Z,16.39
2019-05-21T01:16:24.049Z,16.37
2019-05-21T01:18:53.525Z,16.37
2019-05-21T01:21:22.419Z,16.79
2019-05-21T01:23:51.704Z,16.63
2019-05-21T01:26:20.914Z,16.63
2019-05-21T01:28:50.014Z,16.65
2019-05-21T01:31:18.984Z,16.72
2019-05-21T01:33:47.982Z,16.67
2019-05-21T01:36:16.895Z,16.80
2019-05-21T01:38:46.402Z,16.59
2019-05-21T01:41:15.467Z,16.71
2019-05-21T01:43:44.419Z,16.63
2019-05-21T01:46:12.887Z,16.89
2019-05-21T01:48:41.721Z,16.89
2019-05-21T01:51:09.834Z,16.74
2019-05-21T01:53:38.739Z,16.62
2019-05-21T01:56:06.971Z,16.43
2019-05-21T01:58:35.966Z,16.40
2019-05-21T02:01:05.065Z,16.41
2019-05-21T02:03:34.074Z,16.73
2019-05-21T02:06:03.522Z,16.61
2019-05-21T02:08:32.614Z,16.30
2019-05-21T02:11:56.916Z,16.34
2019-05-21T02:14:27.110Z,16.09
2019-05-21T02:16:57.095Z,15.99
2019-05-21T02:19:26.931Z,16.02
2019-05-21T02:21:56.632Z,15.91
2019-05-21T02:24:26.438Z,16.17
2019-05-21T02:26:56.404Z,16.17
2019-05-21T02:29:25.826Z,16.30
2019-05-21T02:31:55.716Z,16.54
2019-05-21T02:34:25.951Z,16.56
2019-05-21T02:36:55.298Z,16.36
2019-05-21T02:39:25.162Z,16.50
2019-05-21T02:41:54.985Z,16.32
2019-05-21T02:44:24.489Z,15.91
2019-05-21T02:46:54.287Z,15.83
2019-05-21T02:49:24.427Z,15.89
2019-05-21T02:51:54.998Z,16.26
2019-05-21T02:54:39.516Z,16.17
2019-05-21T02:56:56.285Z,16.41
2019-05-21T02:59:26.068Z,16.07
2019-05-21T03:02:07.863Z,16.30
2019-05-21T03:04:36.925Z,16.12
2019-05-21T03:07:18.045Z,15.93
2019-05-21T03:09:50.691Z,16.04
2019-05-21T03:12:21.584Z,16.14
2019-05-21T03:14:50.516Z,16.12
2019-05-21T03:17:19.445Z,16.12
2019-05-21T03:19:48.541Z,16.18
2019-05-21T03:22:17.745Z,16.25
2019-05-21T03:24:46.704Z,16.25
2019-05-21T03:27:15.948Z,16.12
2019-05-21T03:29:45.081Z,15.91
2019-05-21T03:32:13.973Z,15.85
2019-05-21T03:34:43.037Z,15.96
2019-05-21T03:37:11.946Z,16.11
2019-05-21T03:39:41.463Z,16.11
2019-05-21T03:42:10.615Z,15.90
2019-05-21T03:44:56.335Z,16.18
2019-05-21T03:47:10.751Z,16.18
2019-05-21T03:49:39.918Z,16.16
2019-05-21T03:52:09.031Z,16.38
2019-05-21T03:54:38.102Z,16.52
2019-05-21T03:57:06.904Z,16.41
2019-05-21T03:59:35.697Z,16.08
2019-05-21T04:02:03.858Z,15.77
2019-05-21T04:04:33.075Z,15.77
2019-05-21T04:07:05.129Z,15.95
2019-05-21T04:09:34.087Z,16.24
2019-05-21T04:12:02.906Z,16.48
2019-05-21T04:14:36.781Z,16.09
2019-05-21T04:17:16.497Z,16.22
2019-05-21T04:21:41.142Z,16.30
2019-05-21T04:24:10.104Z,16.08
2019-05-21T04:26:40.075Z,16.27
2019-05-21T04:29:08.944Z,16.29
2019-05-21T04:31:37.926Z,16.36
2019-05-21T04:34:06.935Z,16.60
2019-05-21T04:36:37.295Z,16.22
2019-05-21T04:39:07.497Z,16.48
2019-05-21T04:41:36.547Z,16.62
2019-05-21T04:44:05.484Z,16.62
2019-05-21T04:46:34.405Z,16.58
2019-05-21T04:49:03.441Z,16.34
2019-05-21T04:51:32.717Z,16.40
2019-05-21T04:54:01.259Z,16.41
2019-05-21T04:56:30.434Z,16.20
2019-05-21T04:58:59.597Z,16.08
2019-05-21T05:01:27.894Z,15.84
2019-05-21T05:03:57.400Z,16.34
2019-05-21T05:06:28.134Z,16.18
2019-05-21T05:08:58.109Z,16.07
2019-05-21T05:11:27.750Z,16.10
2019-05-21T05:13:56.524Z,16.24
2019-05-21T05:16:25.906Z,16.22
2019-05-21T05:18:55.400Z,16.22
2019-05-21T05:21:24.463Z,16.13
2019-05-21T05:23:53.558Z,16.17
2019-05-21T05:26:22.453Z,16.14
2019-05-21T05:28:51.494Z,16.32
2019-05-21T05:31:24.023Z,16.36
2019-05-21T05:33:53.732Z,16.29
2019-05-21T05:36:21.889Z,16.39
2019-05-21T05:38:50.945Z,16.51
2019-05-21T05:41:24.043Z,16.73
2019-05-21T05:43:53.077Z,16.51
2019-05-21T05:46:24.873Z,16.51
2019-05-21T05:49:06.027Z,16.43
2019-05-21T05:51:34.995Z,16.41
2019-05-21T05:54:07.411Z,16.62
2019-05-21T05:56:35.094Z,16.38
2019-05-21T05:59:04.278Z,16.44
2019-05-21T06:01:34.478Z,16.36
2019-05-21T06:04:03.450Z,16.50
2019-05-21T06:06:32.495Z,16.56
2019-05-21T06:09:01.629Z,16.61
2019-05-21T06:11:31.718Z,16.61
2019-05-21T06:13:59.838Z,16.77
2019-05-21T06:16:29.385Z,16.54
2019-05-21T06:18:58.726Z,16.58
2019-05-21T06:21:27.689Z,16.61
2019-05-21T06:23:56.470Z,16.42
2019-05-21T06:26:26.590Z,16.64
2019-05-21T06:28:56.295Z,16.57
2019-05-21T06:31:26.030Z,16.57
2019-05-21T06:33:55.076Z,16.43
2019-05-21T06:36:23.991Z,16.40
2019-05-21T06:38:52.957Z,16.28
2019-05-21T06:41:22.390Z,16.56
2019-05-21T06:43:51.491Z,16.42
2019-05-21T06:46:20.412Z,16.09
2019-05-21T06:48:49.474Z,16.07
2019-05-21T06:51:18.587Z,15.91
2019-05-21T06:53:47.716Z,16.07
2019-05-21T06:56:15.842Z,16.07
2019-05-21T06:58:44.951Z,16.16
2019-05-21T07:01:13.725Z,16.42
2019-05-21T07:03:41.886Z,16.20
2019-05-21T07:06:10.969Z,16.30
2019-05-21T07:08:40.059Z,16.36
2019-05-21T07:11:09.477Z,16.25
2019-05-21T07:13:38.523Z,16.14
2019-05-21T07:16:07.807Z,16.29
2019-05-21T07:18:36.692Z,16.05
2019-05-21T07:21:05.470Z,15.96
2019-05-21T07:23:34.586Z,15.96
2019-05-21T07:26:03.899Z,16.44
2019-05-21T07:28:34.098Z,16.44
2019-05-21T07:31:03.654Z,16.63
2019-05-21T07:33:32.262Z,16.71
2019-05-21T07:36:01.445Z,16.29
2019-05-21T07:38:29.986Z,16.53
2019-05-21T07:40:59.497Z,16.14
2019-05-21T07:43:29.611Z,16.62
2019-05-21T07:45:59.718Z,16.40
2019-05-21T07:48:29.099Z,16.40
2019-05-21T07:50:59.294Z,16.51
2019-05-21T07:53:29.056Z,16.77
2019-05-21T07:55:58.724Z,16.69
2019-05-21T07:58:27.629Z,16.32
2019-05-21T08:01:00.939Z,16.51
2019-05-21T08:03:29.159Z,15.92
2019-05-21T08:05:58.956Z,16.40
2019-05-21T08:08:28.860Z,16.22
2019-05-21T08:10:58.551Z,15.79
2019-05-21T08:13:27.969Z,15.93
2019-05-21T08:15:57.090Z,15.86
2019-05-21T08:18:25.949Z,16.03
2019-05-21T08:20:55.186Z,16.35
2019-05-21T08:23:24.301Z,16.47
2019-05-21T08:25:56.209Z,16.23
2019-05-21T08:38:35.937Z,16.12
2019-05-21T08:41:05.633Z,16.36
2019-05-21T08:43:34.074Z,16.53
2019-05-21T08:46:04.104Z,16.41
2019-05-21T08:48:33.376Z,16.26
2019-05-21T08:51:02.485Z,16.31
2019-05-21T08:53:31.660Z,16.21
2019-05-21T08:56:00.726Z,16.21
2019-05-21T08:58:30.939Z,16.43
2019-05-21T09:01:00.622Z,16.65
2019-05-21T09:03:30.603Z,16.45
2019-05-21T09:06:00.472Z,16.41
2019-05-21T09:08:30.608Z,16.41
2019-05-21T09:11:00.409Z,16.36
2019-05-21T09:13:30.740Z,16.45
2019-05-21T09:16:00.056Z,16.42
2019-05-21T09:18:29.954Z,16.43
2019-05-21T09:20:59.577Z,16.32
2019-05-21T09:23:30.450Z,16.47
2019-05-21T09:26:00.070Z,16.74
2019-05-21T09:28:28.961Z,16.43
2019-05-21T09:31:01.638Z,16.48
2019-05-21T09:33:30.085Z,16.61
2019-05-21T09:35:59.811Z,16.68
2019-05-21T09:38:28.976Z,16.76
2019-05-21T09:40:58.358Z,16.78
2019-05-21T09:43:28.143Z,16.89
2019-05-21T09:45:57.774Z,17.09
2019-05-21T09:48:25.991Z,17.12
2019-05-21T09:50:58.468Z,17.20
2019-05-21T09:53:27.852Z,17.29
2019-05-21T09:56:00.436Z,16.88
2019-05-21T09:58:42.440Z,17.09
2019-05-21T10:01:27.619Z,17.10
2019-05-21T10:03:58.471Z,17.01
2019-05-21T10:06:28.306Z,17.01
2019-05-21T10:08:58.201Z,16.98
2019-05-21T10:11:27.776Z,16.83
2019-05-21T10:13:56.715Z,16.83
2019-05-21T10:16:25.828Z,16.88
2019-05-21T10:18:54.778Z,17.10
2019-05-21T10:21:24.041Z,17.12
2019-05-21T10:23:53.150Z,17.15
2019-05-21T10:29:02.122Z,17.13
2019-05-21T10:31:32.699Z,16.97
2019-05-21T10:34:08.492Z,17.18
2019-05-21T10:36:38.676Z,16.94
2019-05-21T10:39:08.571Z,17.02
2019-05-21T10:41:37.615Z,16.93
2019-05-21T10:44:08.390Z,16.89
2019-05-21T10:46:38.526Z,16.92
2019-05-21T10:49:12.292Z,16.84
2019-05-21T10:51:41.723Z,16.84
2019-05-21T10:54:11.594Z,16.96
2019-05-21T10:56:47.832Z,17.14
2019-05-21T10:59:14.568Z,17.09
2019-05-21T11:01:52.313Z,17.45
2019-05-21T11:04:37.125Z,17.15
2019-05-21T11:07:08.886Z,17.42
2019-05-21T11:09:38.631Z,17.69
2019-05-21T11:12:08.592Z,17.63
2019-05-21T11:14:37.473Z,17.43
2019-05-21T11:17:09.071Z,17.65
2019-05-21T11:19:38.995Z,17.36
2019-05-21T11:22:08.758Z,17.41
2019-05-21T11:24:38.924Z,17.48
2019-05-21T11:27:13.243Z,17.29
2019-05-21T11:29:43.540Z,17.35
2019-05-21T11:32:13.639Z,17.42
2019-05-21T11:34:43.862Z,17.42
2019-05-21T11:37:13.210Z,17.61
2019-05-21T11:39:44.001Z,17.68
2019-05-21T11:42:13.979Z,17.39
2019-05-21T11:44:43.133Z,17.63
2019-05-21T11:47:12.586Z,17.64
2019-05-21T11:49:41.545Z,17.49
2019-05-21T11:52:10.761Z,17.49
2019-05-21T11:54:40.749Z,17.83
2019-05-21T11:57:10.500Z,18.04
2019-05-21T11:59:39.951Z,17.59
2019-05-21T12:02:10.329Z,17.65
2019-05-21T12:04:39.607Z,17.63
2019-05-21T12:07:12.368Z,17.46
2019-05-21T12:09:42.161Z,17.31
2019-05-21T12:12:11.983Z,17.28
2019-05-21T12:14:41.731Z,17.30
2019-05-21T12:17:11.814Z,17.57
2019-05-21T12:19:41.538Z,17.43
2019-05-21T12:22:11.038Z,17.63
2019-05-21T12:24:40.406Z,17.32
2019-05-21T12:27:09.511Z,17.59
2019-05-21T12:29:38.433Z,17.36
2019-05-21T12:32:07.487Z,17.56
2019-05-21T12:34:38.905Z,17.80
2019-05-21T12:37:07.614Z,18.11
2019-05-21T12:39:36.704Z,18.24
2019-05-21T12:42:06.129Z,18.24
2019-05-21T12:44:35.286Z,18.00
2019-05-21T12:47:09.556Z,18.12
2019-05-21T12:49:39.508Z,17.85
2019-05-21T12:52:09.775Z,18.20
2019-05-21T12:54:38.993Z,18.46
2019-05-21T12:57:07.940Z,18.45
2019-05-21T12:59:36.934Z,18.67
2019-05-21T13:02:06.054Z,18.44
2019-05-21T13:04:35.017Z,18.19
2019-05-21T13:07:05.883Z,17.91
2019-05-21T13:09:36.122Z,18.17
2019-05-21T13:12:05.338Z,18.09
2019-05-21T13:14:35.507Z,18.03
2019-05-21T13:17:03.946Z,18.46
2019-05-21T13:19:33.262Z,18.44
2019-05-21T13:22:02.717Z,17.93
2019-05-21T13:24:32.519Z,17.49
2019-05-21T13:27:02.584Z,18.11
2019-05-21T13:29:32.008Z,18.11
2019-05-21T13:32:03.760Z,18.11
2019-05-21T13:34:33.144Z,18.11
2019-05-21T13:37:03.704Z,17.98
2019-05-21T13:39:48.805Z,18.00
2019-05-21T13:42:04.455Z,18.00
2019-05-21T13:44:33.762Z,18.14
2019-05-21T13:47:03.937Z,18.01
2019-05-21T13:49:33.556Z,18.20
2019-05-21T13:52:02.673Z,18.18
2019-05-21T13:54:30.988Z,17.85
2019-05-21T13:57:01.485Z,17.93
2019-05-21T13:59:31.058Z,18.38
2019-05-21T14:02:00.978Z,18.27
2019-05-21T14:04:32.297Z,18.03
2019-05-21T14:07:02.135Z,17.84
2019-05-21T14:09:31.930Z,17.92
2019-05-21T14:12:01.899Z,17.59
2019-05-21T14:14:32.307Z,17.93
2019-05-21T14:17:01.924Z,17.82
2019-05-21T14:19:32.023Z,18.08
2019-05-21T14:22:01.748Z,18.11
2019-05-21T14:24:31.048Z,18.10
2019-05-21T14:27:01.408Z,18.08
2019-05-21T14:29:31.564Z,18.26
2019-05-21T14:32:02.317Z,17.77
2019-05-21T14:34:33.740Z,17.77
2019-05-21T14:37:02.596Z,17.71
2019-05-21T14:39:33.423Z,17.53
2019-05-21T14:42:03.621Z,17.58
2019-05-21T14:44:33.533Z,17.58
2019-05-21T14:47:03.094Z,17.66
2019-05-21T14:49:33.521Z,17.90
2019-05-21T14:52:03.286Z,17.31
2019-05-21T14:54:32.583Z,17.51
2019-05-21T14:57:04.607Z,17.42
2019-05-21T14:59:33.034Z,17.53
2019-05-21T15:02:02.808Z,17.53
2019-05-21T15:04:32.490Z,17.58
2019-05-21T15:07:02.742Z,17.83
2019-05-21T15:09:31.613Z,17.83
2019-05-21T15:12:01.773Z,18.24
2019-05-21T15:14:32.051Z,17.74
2019-05-21T15:17:02.488Z,17.90
2019-05-21T15:19:32.089Z,17.75
2019-05-21T15:22:01.131Z,17.75
2019-05-21T15:24:33.407Z,17.45
2019-05-21T15:27:02.989Z,17.58
2019-05-21T15:29:32.868Z,17.82
2019-05-21T15:32:03.226Z,17.81
2019-05-21T15:34:33.741Z,17.77
2019-05-21T15:37:03.718Z,17.49
2019-05-21T15:39:34.630Z,17.15
2019-05-21T15:42:04.427Z,17.20
2019-05-21T15:44:34.104Z,17.34
2019-05-21T15:47:04.433Z,17.38
2019-05-21T15:49:36.885Z,17.41
2019-05-21T15:52:06.991Z,17.48
2019-05-21T15:54:35.939Z,17.67
2019-05-21T15:57:05.834Z,17.44
2019-05-21T15:59:36.137Z,17.39
2019-05-21T16:02:05.700Z,17.83
2019-05-21T16:04:35.777Z,17.56
2019-05-21T16:07:04.236Z,17.69
2019-05-21T16:09:34.881Z,17.92
2019-05-21T16:12:04.509Z,17.90
2019-05-21T16:14:34.806Z,17.83
2019-05-21T16:17:04.049Z,17.75
2019-05-21T16:19:34.705Z,17.83
2019-05-21T16:22:04.318Z,17.80
2019-05-21T16:24:34.610Z,17.91
2019-05-21T16:27:05.105Z,17.59
2019-05-21T16:32:23.612Z,17.53
2019-05-21T16:34:52.617Z,17.45
2019-05-21T16:37:22.319Z,17.71
2019-05-21T16:39:51.412Z,17.40
2019-05-21T16:42:21.720Z,17.30
2019-05-21T16:44:50.483Z,17.13
2019-05-21T16:47:19.952Z,17.13
2019-05-21T16:49:49.265Z,17.12
2019-05-21T16:52:18.581Z,17.37
2019-05-21T16:54:47.928Z,17.40
2019-05-21T16:57:16.968Z,17.40
2019-05-21T16:59:46.121Z,17.49
2019-05-21T17:02:15.500Z,17.30
2019-05-21T17:04:44.765Z,17.18
2019-05-21T17:07:13.766Z,17.18
2019-05-21T17:09:43.401Z,17.11
2019-05-21T17:12:12.635Z,17.09
2019-05-21T17:14:40.878Z,17.05
2019-05-21T17:17:10.332Z,17.07
2019-05-21T17:19:39.479Z,16.66
2019-05-21T17:22:08.073Z,16.48
2019-05-21T17:24:37.497Z,16.48
2019-05-21T17:27:07.143Z,16.71
2019-05-21T17:29:36.494Z,16.71
2019-05-21T17:32:06.710Z,16.63
2019-05-21T17:34:36.531Z,16.63
2019-05-21T17:37:06.803Z,17.01
2019-05-21T17:39:36.322Z,17.01
2019-05-21T17:42:15.246Z,16.73
2019-05-21T17:44:37.298Z,17.03
2019-05-21T17:47:06.753Z,17.03
2019-05-21T17:49:36.713Z,16.89
2019-05-21T17:52:05.185Z,16.98
2019-05-21T17:54:35.586Z,16.98
2019-05-21T17:57:05.456Z,16.82
2019-05-21T17:59:35.335Z,16.69
2019-05-21T18:02:07.309Z,16.71
2019-05-21T18:04:36.909Z,16.58
2019-05-21T18:07:08.331Z,16.71
2019-05-21T18:09:38.326Z,16.53
2019-05-21T18:12:10.157Z,16.66
2019-05-21T18:14:41.170Z,16.55
2019-05-21T18:17:15.321Z,16.52
2019-05-21T18:19:45.326Z,16.76
2019-05-21T18:22:36.788Z,16.82
2019-05-21T18:25:07.309Z,16.54
2019-05-21T18:27:36.446Z,16.38
2019-05-21T18:30:07.164Z,16.55
2019-05-21T18:32:38.465Z,16.51
2019-05-21T18:35:08.498Z,16.66
2019-05-21T18:37:38.210Z,16.58
2019-05-21T18:40:08.966Z,16.58
2019-05-21T18:42:39.747Z,15.96
2019-05-21T18:45:10.597Z,16.29
2019-05-21T18:47:39.211Z,16.20
2019-05-21T18:50:09.047Z,16.21
2019-05-21T18:52:38.575Z,16.20
2019-05-21T18:55:09.091Z,16.48
2019-05-21T18:57:38.246Z,16.48
2019-05-21T19:00:08.630Z,16.46
2019-05-21T19:02:38.171Z,16.54
2019-05-21T19:05:08.988Z,16.50
2019-05-21T19:07:38.504Z,16.51
2019-05-21T19:10:08.538Z,16.46
2019-05-21T19:14:33.584Z,16.49
2019-05-21T19:17:03.806Z,16.45
2019-05-21T19:19:34.360Z,16.45
2019-05-21T19:22:04.497Z,15.96
2019-05-21T19:24:35.569Z,16.25
2019-05-21T19:27:05.328Z,16.25
2019-05-21T19:29:35.311Z,16.35
2019-05-21T19:32:05.470Z,16.22
2019-05-21T19:34:34.981Z,16.04
2019-05-21T19:37:04.301Z,16.27
2019-05-21T19:39:35.410Z,16.19
2019-05-21T19:42:05.617Z,16.32
2019-05-21T19:44:37.448Z,16.19
2019-05-21T19:47:06.993Z,16.19
2019-05-21T19:49:36.972Z,16.26
2019-05-21T19:52:06.722Z,16.30
2019-05-21T19:54:35.831Z,16.13
2019-05-21T19:57:06.157Z,16.24
2019-05-21T19:59:35.913Z,16.05
2019-05-21T20:02:07.989Z,16.06
2019-05-21T20:04:38.510Z,16.10
2019-05-21T20:07:09.973Z,15.73
2019-05-21T20:09:41.683Z,15.73
2019-05-21T20:12:10.590Z,16.09
2019-05-21T20:14:39.968Z,16.52
2019-05-21T20:17:10.642Z,16.52
2019-05-21T20:19:40.594Z,16.44
2019-05-21T20:22:10.927Z,16.12
2019-05-21T20:24:41.492Z,16.12
2019-05-21T20:27:36.780Z,15.84
2019-05-21T20:30:14.261Z,15.65
2019-05-21T20:32:45.927Z,15.72
2019-05-21T20:35:17.585Z,15.80
2019-05-21T20:37:49.469Z,15.83
2019-05-21T20:40:20.319Z,16.30
2019-05-21T20:42:50.835Z,16.41
2019-05-21T20:45:21.022Z,15.94
2019-05-21T20:47:51.002Z,15.94
2019-05-21T20:50:21.840Z,16.07
2019-05-21T20:52:51.504Z,16.27
2019-05-21T20:55:20.879Z,16.26
2019-05-21T20:57:52.429Z,16.02
2019-05-21T21:00:48.328Z,16.39
2019-05-21T21:03:19.590Z,16.19
2019-05-21T21:05:48.286Z,15.97
2019-05-21T21:08:19.960Z,16.03
2019-05-21T21:10:49.330Z,16.08
2019-05-21T21:13:18.733Z,16.30
2019-05-21T21:15:48.125Z,16.25
2019-05-21T21:18:17.466Z,16.20
2019-05-21T21:20:46.494Z,15.99
2019-05-21T21:23:20.600Z,16.17
2019-05-21T21:25:49.873Z,15.97
2019-05-21T21:28:19.138Z,15.97
2019-05-21T21:30:48.675Z,15.96
2019-05-21T21:33:17.603Z,16.15
2019-05-21T21:35:46.753Z,16.26
2019-05-21T21:38:19.193Z,16.26
2019-05-21T21:40:49.142Z,16.10
2019-05-21T21:43:18.188Z,16.10
2019-05-21T21:45:47.133Z,16.12
2019-05-21T21:48:16.870Z,16.22
2019-05-21T21:50:46.420Z,16.43
2019-05-21T21:53:16.842Z,16.29
2019-05-21T21:55:46.136Z,16.26
2019-05-21T21:58:15.626Z,16.37
2019-05-21T22:01:49.691Z,16.44
2019-05-21T22:04:23.574Z,16.44
2019-05-21T22:06:53.622Z,16.26
2019-05-21T22:09:26.019Z,16.36
2019-05-21T22:11:56.109Z,16.48
2019-05-21T22:14:25.581Z,16.13
2019-05-21T22:16:55.082Z,16.35
2019-05-21T22:19:24.790Z,16.18
2019-05-21T22:21:54.667Z,16.42
2019-05-21T22:24:23.899Z,16.30
2019-05-21T22:26:54.741Z,16.30
2019-05-21T22:29:25.356Z,16.38
2019-05-21T22:31:54.455Z,16.32
2019-05-21T22:34:24.005Z,16.04
2019-05-21T22:36:53.105Z,16.18
2019-05-21T22:39:23.476Z,15.84
2019-05-21T22:41:52.726Z,16.53
2019-05-21T22:44:21.022Z,16.53
2019-05-21T22:46:50.304Z,16.21
2019-05-21T22:49:19.449Z,16.44
2019-05-21T22:51:48.521Z,16.36
2019-05-21T22:54:17.594Z,16.39
2019-05-21T22:56:46.728Z,16.13
2019-05-21T22:59:16.029Z,16.13
2019-05-21T23:01:45.073Z,16.46
2019-05-21T23:04:15.432Z,16.43
2019-05-21T23:06:46.875Z,16.13
2019-05-21T23:09:16.388Z,16.41
2019-05-21T23:11:45.703Z,16.55
2019-05-21T23:14:13.925Z,16.09
2019-05-21T23:16:45.429Z,16.09
2019-05-21T23:19:28.992Z,16.07
2019-05-21T23:22:02.411Z,15.92
2019-05-21T23:24:32.305Z,16.23
2019-05-21T23:27:04.213Z,15.99
2019-05-21T23:29:34.866Z,16.38
2019-05-21T23:32:06.446Z,16.29
2019-05-21T23:34:37.713Z,16.32
2019-05-21T23:37:10.460Z,16.45
2019-05-21T23:39:40.767Z,16.60
2019-05-21T23:42:09.659Z,16.46
2019-05-21T23:44:38.312Z,16.67
2019-05-21T23:47:12.058Z,16.67
2019-05-21T23:49:41.577Z,16.43
2019-05-21T23:52:11.058Z,16.73
2019-05-21T23:54:40.501Z,16.73
2019-05-21T23:57:15.692Z,16.70
2019-05-21T23:59:45.086Z,16.80
